Time,TemperatureF,DewpointF,PressureIn,WindDirection,WindDirectionDegrees,WindSpeedMPH,WindSpeedGustMPH,Humidity,HourlyPrecipIn,Conditions,Clouds,dailyrainin,SoftwareType,DateUTC
2013-05-21 00:01:00,65.0,63.2,29.87,SE,145,4.0,8.0,94,0.00,,,0.00,Wunderground v.1.15,2013-05-21 04:01:00,
2013-05-21 00:02:00,65.0,63.2,29.87,SE,145,5.0,8.0,94,0.00,,,0.00,Wunderground v.1.15,2013-05-21 04:02:00,
2013-05-21 00:03:00,65.0,63.2,29.87,SE,143,6.0,11.0,94,0.00,,,0.00,Wunderground v.1.15,2013-05-21 04:03:00,
2013-05-21 00:04:00,65.0,63.2,29.87,SE,143,6.0,11.0,94,0.00,,,0.00,Wunderground v.1.15,2013-05-21 04:04:00,
2013-05-21 00:07:00,65.0,63.2,29.87,SE,143,6.0,11.0,94,0.00,,,0.00,Wunderground v.1.15,2013-05-21 04:07:00,
2013-05-21 00:12:00,65.0,63.5,29.87,SE,143,5.0,5.0,95,0.00,,,0.00,Wunderground v.1.15,2013-05-21 04:12:00,
2013-05-21 00:17:00,65.1,63.6,29.87,SE,143,3.0,5.0,95,0.00,,,0.00,Wunderground v.1.15,2013-05-21 04:17:00,
2013-05-21 00:22:00,65.1,63.6,29.87,SE,143,1.0,2.0,95,0.00,,,0.00,Wunderground v.1.15,2013-05-21 04:22:00,
2013-05-21 00:27:00,65.0,63.5,29.86,SE,143,0.0,2.0,95,0.00,,,0.00,Wunderground v.1.15,2013-05-21 04:27:00,
2013-05-21 00:32:00,64.9,63.4,29.86,SE,143,1.0,1.0,95,0.00,,,0.00,Wunderground v.1.15,2013-05-21 04:32:00,
2013-05-21 00:37:00,64.8,63.3,29.86,SE,143,0.0,1.0,95,0.00,,,0.00,Wunderground v.1.15,2013-05-21 04:37:00,
2013-05-21 00:42:00,64.7,63.2,29.87,SE,143,0.0,0.0,95,0.00,,,0.00,Wunderground v.1.15,2013-05-21 04:42:00,
2013-05-21 00:47:00,64.7,63.2,29.87,SE,143,0.0,0.0,95,0.00,,,0.00,Wunderground v.1.15,2013-05-21 04:47:00,
2013-05-21 00:52:00,64.8,63.3,29.87,SE,143,0.0,0.0,95,0.00,,,0.00,Wunderground v.1.15,2013-05-21 04:52:00,
2013-05-21 00:57:00,64.8,63.3,29.87,SE,143,0.0,0.0,95,0.00,,,0.00,Wunderground v.1.15,2013-05-21 04:57:00,
2013-05-21 01:02:00,64.7,63.2,29.87,SE,143,0.0,0.0,95,0.00,,,0.00,Wunderground v.1.15,2013-05-21 05:02:00,
2013-05-21 01:07:00,64.6,63.1,29.87,SE,143,0.0,0.0,95,0.00,,,0.00,Wunderground v.1.15,2013-05-21 05:07:00,
2013-05-21 01:12:00,64.5,63.0,29.87,SE,143,0.0,0.0,95,0.00,,,0.00,Wunderground v.1.15,2013-05-21 05:12:00,
2013-05-21 01:17:00,64.5,63.0,29.87,SE,143,0.0,0.0,95,0.00,,,0.00,Wunderground v.1.15,2013-05-21 05:17:00,
2013-05-21 01:22:00,64.2,62.7,29.87,SE,143,0.0,0.0,95,0.00,,,0.00,Wunderground v.1.15,2013-05-21 05:22:00,
2013-05-21 01:28:00,64.1,62.6,29.87,SE,143,0.0,0.0,95,0.00,,,0.00,Wunderground v.1.15,2013-05-21 05:28:00,
2013-05-21 01:34:00,64.0,62.5,29.87,SE,143,0.0,0.0,95,0.00,,,0.00,Wunderground v.1.15,2013-05-21 05:34:00,
2013-05-21 01:39:00,63.9,62.4,29.87,SE,143,0.0,0.0,95,0.00,,,0.00,Wunderground v.1.15,2013-05-21 05:39:00,
2013-05-21 01:44:00,63.8,62.3,29.86,SE,143,0.0,0.0,95,0.00,,,0.00,Wunderground v.1.15,2013-05-21 05:44:00,
2013-05-21 01:49:00,63.8,62.3,29.86,SE,143,0.0,0.0,95,0.00,,,0.00,Wunderground v.1.15,2013-05-21 05:49:00,
2013-05-21 01:54:00,63.7,62.2,29.86,SE,143,0.0,0.0,95,0.00,,,0.00,Wunderground v.1.15,2013-05-21 05:54:00,
2013-05-21 01:59:00,63.6,62.1,29.87,SE,143,0.0,0.0,95,0.00,,,0.00,Wunderground v.1.15,2013-05-21 05:59:00,
2013-05-21 02:04:00,63.6,62.1,29.87,SE,143,0.0,0.0,95,0.00,,,0.00,Wunderground v.1.15,2013-05-21 06:04:00,
2013-05-21 02:09:00,63.6,62.1,29.87,SE,143,0.0,0.0,95,0.00,,,0.00,Wunderground v.1.15,2013-05-21 06:09:00,
2013-05-21 02:14:00,63.5,62.0,29.87,SE,143,0.0,0.0,95,0.00,,,0.00,Wunderground v.1.15,2013-05-21 06:14:00,
2013-05-21 02:19:00,63.4,61.9,29.87,SE,143,0.0,0.0,95,0.00,,,0.00,Wunderground v.1.15,2013-05-21 06:19:00,
2013-05-21 02:25:00,63.4,61.9,29.87,SE,143,0.0,0.0,95,0.00,,,0.00,Wunderground v.1.15,2013-05-21 06:25:00,
2013-05-21 02:30:00,63.3,61.8,29.86,SE,143,0.0,0.0,95,0.00,,,0.00,Wunderground v.1.15,2013-05-21 06:30:00,
2013-05-21 02:35:00,63.2,61.7,29.86,SE,143,0.0,0.0,95,0.00,,,0.00,Wunderground v.1.15,2013-05-21 06:35:00,
2013-05-21 02:40:00,63.2,61.7,29.86,SE,143,0.0,0.0,95,0.00,,,0.00,Wunderground v.1.15,2013-05-21 06:40:00,
2013-05-21 02:45:00,63.1,61.6,29.86,SE,143,0.0,0.0,95,0.00,,,0.00,Wunderground v.1.15,2013-05-21 06:45:00,
2013-05-21 02:50:00,63.0,61.5,29.86,SE,143,0.0,0.0,95,0.00,,,0.00,Wunderground v.1.15,2013-05-21 06:50:00,
2013-05-21 02:55:00,62.9,61.4,29.86,SE,143,0.0,0.0,95,0.00,,,0.00,Wunderground v.1.15,2013-05-21 06:55:00,
2013-05-21 03:00:00,62.9,61.4,29.85,SE,143,0.0,0.0,95,0.00,,,0.00,Wunderground v.1.15,2013-05-21 07:00:00,
2013-05-21 03:05:00,62.8,61.3,29.85,SE,143,0.0,0.0,95,0.00,,,0.00,Wunderground v.1.15,2013-05-21 07:05:00,
2013-05-21 03:10:00,62.7,61.2,29.85,SE,143,0.0,0.0,95,0.00,,,0.00,Wunderground v.1.15,2013-05-21 07:10:00,
2013-05-21 03:16:00,62.6,61.1,29.85,SE,143,0.0,0.0,95,0.00,,,0.00,Wunderground v.1.15,2013-05-21 07:16:00,
2013-05-21 03:21:00,62.6,61.1,29.85,SE,143,0.0,0.0,95,0.00,,,0.00,Wunderground v.1.15,2013-05-21 07:21:00,
2013-05-21 03:26:00,62.6,61.1,29.85,SE,143,0.0,0.0,95,0.00,,,0.00,Wunderground v.1.15,2013-05-21 07:26:00,
2013-05-21 03:31:00,62.5,61.0,29.85,SE,143,0.0,0.0,95,0.00,,,0.00,Wunderground v.1.15,2013-05-21 07:31:00,
2013-05-21 03:36:00,62.5,61.0,29.85,SE,143,0.0,0.0,95,0.00,,,0.00,Wunderground v.1.15,2013-05-21 07:36:00,
2013-05-21 03:41:00,62.6,61.1,29.85,SE,143,0.0,0.0,95,0.00,,,0.00,Wunderground v.1.15,2013-05-21 07:41:00,
2013-05-21 03:46:00,62.6,61.1,29.85,SE,143,0.0,0.0,95,0.00,,,0.00,Wunderground v.1.15,2013-05-21 07:46:00,
2013-05-21 03:51:00,62.6,61.1,29.85,SE,143,0.0,0.0,95,0.00,,,0.00,Wunderground v.1.15,2013-05-21 07:51:00,
2013-05-21 03:56:00,62.5,61.3,29.85,SE,143,0.0,0.0,96,0.00,,,0.00,Wunderground v.1.15,2013-05-21 07:56:00,
2013-05-21 04:01:00,62.5,61.3,29.84,SE,143,0.0,0.0,96,0.00,,,0.00,Wunderground v.1.15,2013-05-21 08:01:00,
2013-05-21 04:06:00,62.5,61.3,29.84,SE,143,0.0,0.0,96,0.00,,,0.00,Wunderground v.1.15,2013-05-21 08:06:00,
2013-05-21 04:12:00,62.5,61.3,29.85,SE,143,0.0,0.0,96,0.00,,,0.00,Wunderground v.1.15,2013-05-21 08:12:00,
2013-05-21 04:17:00,62.6,61.4,29.85,SE,143,0.0,0.0,96,0.00,,,0.00,Wunderground v.1.15,2013-05-21 08:17:00,
2013-05-21 04:22:00,62.6,61.4,29.85,SE,143,0.0,0.0,96,0.00,,,0.00,Wunderground v.1.15,2013-05-21 08:22:00,
2013-05-21 04:27:00,62.7,61.5,29.84,SE,143,0.0,0.0,96,0.00,,,0.00,Wunderground v.1.15,2013-05-21 08:27:00,
2013-05-21 04:32:00,62.4,61.2,29.84,SE,143,0.0,0.0,96,0.00,,,0.00,Wunderground v.1.15,2013-05-21 08:32:00,
2013-05-21 04:37:00,62.1,60.7,29.84,SE,143,0.0,0.0,95,0.00,,,0.00,Wunderground v.1.15,2013-05-21 08:37:00,
2013-05-21 04:42:00,62.0,60.6,29.84,SE,143,0.0,0.0,95,0.00,,,0.00,Wunderground v.1.15,2013-05-21 08:42:00,
2013-05-21 04:47:00,61.8,60.4,29.84,SE,143,0.0,0.0,95,0.00,,,0.00,Wunderground v.1.15,2013-05-21 08:47:00,
2013-05-21 04:52:00,61.6,60.4,29.84,SE,143,0.0,0.0,96,0.00,,,0.00,Wunderground v.1.15,2013-05-21 08:52:00,
2013-05-21 04:57:00,61.6,60.2,29.84,SE,143,0.0,0.0,95,0.00,,,0.00,Wunderground v.1.15,2013-05-21 08:57:00,
2013-05-21 05:02:00,61.7,60.5,29.84,SE,143,0.0,0.0,96,0.00,,,0.00,Wunderground v.1.15,2013-05-21 09:02:00,
2013-05-21 05:07:00,61.8,60.6,29.84,SE,143,0.0,0.0,96,0.00,,,0.00,Wunderground v.1.15,2013-05-21 09:07:00,
2013-05-21 05:12:00,61.8,60.6,29.84,SE,143,0.0,0.0,96,0.00,,,0.00,Wunderground v.1.15,2013-05-21 09:12:00,
2013-05-21 05:17:00,61.8,60.6,29.84,SE,143,0.0,0.0,96,0.00,,,0.00,Wunderground v.1.15,2013-05-21 09:17:00,
2013-05-21 05:22:00,61.8,60.6,29.84,SE,143,0.0,0.0,96,0.00,,,0.00,Wunderground v.1.15,2013-05-21 09:22:00,
2013-05-21 05:28:00,61.8,60.6,29.85,SE,143,0.0,0.0,96,0.00,,,0.00,Wunderground v.1.15,2013-05-21 09:28:00,
2013-05-21 05:33:00,62.0,60.8,29.85,SE,143,0.0,0.0,96,0.00,,,0.00,Wunderground v.1.15,2013-05-21 09:33:00,
2013-05-21 05:38:00,62.1,60.9,29.85,SE,143,0.0,0.0,96,0.00,,,0.00,Wunderground v.1.15,2013-05-21 09:38:00,
2013-05-21 05:43:00,62.1,60.9,29.85,SE,143,0.0,0.0,96,0.00,,,0.00,Wunderground v.1.15,2013-05-21 09:43:00,
2013-05-21 05:48:00,62.1,60.9,29.85,SE,143,0.0,0.0,96,0.00,,,0.00,Wunderground v.1.15,2013-05-21 09:48:00,
2013-05-21 05:53:00,62.1,60.9,29.85,SE,143,0.0,0.0,96,0.00,,,0.00,Wunderground v.1.15,2013-05-21 09:53:00,
2013-05-21 05:59:00,62.1,60.9,29.85,SE,143,0.0,0.0,96,0.00,,,0.00,Wunderground v.1.15,2013-05-21 09:59:00,
2013-05-21 06:04:00,62.1,60.9,29.85,SE,143,0.0,0.0,96,0.00,,,0.00,Wunderground v.1.15,2013-05-21 10:04:00,
2013-05-21 06:10:00,62.2,61.0,29.85,SE,143,0.0,0.0,96,0.00,,,0.00,Wunderground v.1.15,2013-05-21 10:10:00,
2013-05-21 06:15:00,62.2,61.0,29.85,SE,143,0.0,0.0,96,0.00,,,0.00,Wunderground v.1.15,2013-05-21 10:15:00,
2013-05-21 06:20:00,62.3,61.1,29.85,SE,143,0.0,0.0,96,0.00,,,0.00,Wunderground v.1.15,2013-05-21 10:20:00,
2013-05-21 06:25:00,62.3,61.1,29.85,SE,143,0.0,0.0,96,0.00,,,0.00,Wunderground v.1.15,2013-05-21 10:25:00,
2013-05-21 06:30:00,62.2,61.0,29.86,SE,143,0.0,0.0,96,0.00,,,0.00,Wunderground v.1.15,2013-05-21 10:30:00,
2013-05-21 06:35:00,62.2,61.0,29.86,SE,143,0.0,0.0,96,0.00,,,0.00,Wunderground v.1.15,2013-05-21 10:35:00,
2013-05-21 06:41:00,62.2,61.0,29.86,SE,143,0.0,0.0,96,0.00,,,0.00,Wunderground v.1.15,2013-05-21 10:41:00,
2013-05-21 06:46:00,62.2,61.0,29.86,SE,143,0.0,0.0,96,0.00,,,0.00,Wunderground v.1.15,2013-05-21 10:46:00,
2013-05-21 06:51:00,62.2,61.0,29.86,SE,143,0.0,0.0,96,0.00,,,0.00,Wunderground v.1.15,2013-05-21 10:51:00,
2013-05-21 06:56:00,62.2,61.0,29.86,SE,143,0.0,0.0,96,0.00,,,0.00,Wunderground v.1.15,2013-05-21 10:56:00,
2013-05-21 07:01:00,62.3,61.1,29.86,SE,143,0.0,0.0,96,0.00,,,0.00,Wunderground v.1.15,2013-05-21 11:01:00,
2013-05-21 07:06:00,62.3,61.1,29.86,SE,143,0.0,0.0,96,0.00,,,0.00,Wunderground v.1.15,2013-05-21 11:06:00,
2013-05-21 07:11:00,62.4,61.2,29.86,SE,143,0.0,0.0,96,0.00,,,0.00,Wunderground v.1.15,2013-05-21 11:11:00,
2013-05-21 07:16:00,62.4,61.2,29.86,SE,143,0.0,0.0,96,0.00,,,0.00,Wunderground v.1.15,2013-05-21 11:16:00,
2013-05-21 07:21:00,62.4,61.2,29.86,SE,143,0.0,0.0,96,0.00,,,0.00,Wunderground v.1.15,2013-05-21 11:21:00,
2013-05-21 07:26:00,62.3,61.1,29.86,SE,143,0.0,0.0,96,0.00,,,0.00,Wunderground v.1.15,2013-05-21 11:26:00,
2013-05-21 07:31:00,62.4,61.2,29.87,SE,143,0.0,0.0,96,0.00,,,0.00,Wunderground v.1.15,2013-05-21 11:31:00,
2013-05-21 07:36:00,62.4,61.2,29.87,SE,143,0.0,0.0,96,0.00,,,0.00,Wunderground v.1.15,2013-05-21 11:36:00,
2013-05-21 07:41:00,62.4,61.2,29.87,SE,143,0.0,0.0,96,0.00,,,0.00,Wunderground v.1.15,2013-05-21 11:41:00,
2013-05-21 07:47:00,62.5,61.3,29.87,SE,143,0.0,0.0,96,0.00,,,0.00,Wunderground v.1.15,2013-05-21 11:47:00,
2013-05-21 07:52:00,62.6,61.4,29.87,SE,143,0.0,0.0,96,0.00,,,0.00,Wunderground v.1.15,2013-05-21 11:52:00,
2013-05-21 07:57:00,62.6,61.4,29.88,SE,143,0.0,0.0,96,0.00,,,0.00,Wunderground v.1.15,2013-05-21 11:57:00,
2013-05-21 08:02:00,62.8,61.6,29.88,SE,143,0.0,0.0,96,0.00,,,0.00,Wunderground v.1.15,2013-05-21 12:02:00,
2013-05-21 08:07:00,63.0,61.8,29.88,SE,143,0.0,0.0,96,0.00,,,0.00,Wunderground v.1.15,2013-05-21 12:07:00,
2013-05-21 08:12:00,63.1,61.9,29.88,SE,143,0.0,0.0,96,0.00,,,0.00,Wunderground v.1.15,2013-05-21 12:12:00,
2013-05-21 08:17:00,63.1,62.2,29.88,SE,143,0.0,0.0,97,0.00,,,0.00,Wunderground v.1.15,2013-05-21 12:17:00,
2013-05-21 08:23:00,63.1,62.2,29.88,SE,143,0.0,0.0,97,0.00,,,0.00,Wunderground v.1.15,2013-05-21 12:23:00,
2013-05-21 08:28:00,63.1,62.2,29.88,SE,143,0.0,1.0,97,0.00,,,0.00,Wunderground v.1.15,2013-05-21 12:28:00,
2013-05-21 08:33:00,63.0,61.8,29.88,SE,143,1.0,4.0,96,0.00,,,0.00,Wunderground v.1.15,2013-05-21 12:33:00,
2013-05-21 08:38:00,63.1,62.2,29.88,SE,143,1.0,4.0,97,0.00,,,0.00,Wunderground v.1.15,2013-05-21 12:38:00,
2013-05-21 08:43:00,63.2,62.3,29.88,SE,143,0.0,1.0,97,0.00,,,0.00,Wunderground v.1.15,2013-05-21 12:43:00,
2013-05-21 08:48:00,63.4,62.5,29.88,SE,143,0.0,1.0,97,0.00,,,0.00,Wunderground v.1.15,2013-05-21 12:48:00,
2013-05-21 08:53:00,63.4,62.5,29.88,SE,143,0.0,1.0,97,0.00,,,0.00,Wunderground v.1.15,2013-05-21 12:53:00,
2013-05-21 08:58:00,63.4,62.5,29.89,SE,143,0.0,5.0,97,0.00,,,0.00,Wunderground v.1.15,2013-05-21 12:58:00,
2013-05-21 09:03:00,63.4,62.5,29.89,SE,143,1.0,1.0,97,0.00,,,0.00,Wunderground v.1.15,2013-05-21 13:03:00,
2013-05-21 09:08:00,63.6,62.4,29.89,SE,143,1.0,7.0,96,0.00,,,0.00,Wunderground v.1.15,2013-05-21 13:08:00,
2013-05-21 09:14:00,63.6,62.4,29.89,SE,143,2.0,5.0,96,0.00,,,0.00,Wunderground v.1.15,2013-05-21 13:14:00,
2013-05-21 09:20:00,63.6,62.4,29.89,SE,143,3.0,3.0,96,0.00,,,0.00,Wunderground v.1.15,2013-05-21 13:20:00,
2013-05-21 09:25:00,63.7,62.5,29.89,SE,143,1.0,3.0,96,0.00,,,0.00,Wunderground v.1.15,2013-05-21 13:25:00,
2013-05-21 09:30:00,63.8,62.9,29.88,SE,143,1.0,1.0,97,0.00,,,0.00,Wunderground v.1.15,2013-05-21 13:30:00,
2013-05-21 09:35:00,63.9,63.0,29.88,SE,143,1.0,8.0,97,0.00,,,0.00,Wunderground v.1.15,2013-05-21 13:35:00,
2013-05-21 09:40:00,64.3,63.4,29.88,SE,143,1.0,1.0,97,0.00,,,0.00,Wunderground v.1.15,2013-05-21 13:40:00,
2013-05-21 09:45:00,64.7,63.8,29.88,SE,146,1.0,6.0,97,0.00,,,0.00,Wunderground v.1.15,2013-05-21 13:45:00,
2013-05-21 09:50:00,65.0,64.1,29.88,SE,146,1.0,1.0,97,0.00,,,0.00,Wunderground v.1.15,2013-05-21 13:50:00,
2013-05-21 09:56:00,65.7,64.8,29.88,SE,146,1.0,3.0,97,0.00,,,0.00,Wunderground v.1.15,2013-05-21 13:56:00,
2013-05-21 10:01:00,65.9,65.0,29.88,SE,146,1.0,4.0,97,0.00,,,0.00,Wunderground v.1.15,2013-05-21 14:01:00,
2013-05-21 10:06:00,66.2,65.3,29.88,SE,145,1.0,11.0,97,0.00,,,0.00,Wunderground v.1.15,2013-05-21 14:06:00,
2013-05-21 10:11:00,66.8,65.6,29.88,NW,306,3.0,4.0,96,0.00,,,0.00,Wunderground v.1.15,2013-05-21 14:11:00,
2013-05-21 10:16:00,67.4,65.9,29.88,NW,324,4.0,5.0,95,0.00,,,0.00,Wunderground v.1.15,2013-05-21 14:16:00,
2013-05-21 10:21:00,67.9,65.8,29.88,NNW,327,4.0,4.0,93,0.00,,,0.00,Wunderground v.1.15,2013-05-21 14:21:00,
2013-05-21 10:27:00,68.4,66.3,29.87,NW,324,3.0,4.0,93,0.00,,,0.00,Wunderground v.1.15,2013-05-21 14:27:00,
2013-05-21 10:32:00,69.2,66.8,29.87,NW,324,1.0,2.0,92,0.00,,,0.00,Wunderground v.1.15,2013-05-21 14:32:00,
2013-05-21 10:37:00,70.3,67.5,29.87,NW,324,1.0,2.0,91,0.00,,,0.00,Wunderground v.1.15,2013-05-21 14:37:00,
2013-05-21 10:42:00,71.3,67.2,29.87,NW,323,1.0,2.0,87,0.00,,,0.00,Wunderground v.1.15,2013-05-21 14:42:00,
2013-05-21 10:47:00,72.6,67.8,29.87,NW,319,3.0,8.0,85,0.00,,,0.00,Wunderground v.1.15,2013-05-21 14:47:00,
2013-05-21 10:53:00,73.9,67.3,29.87,WNW,296,4.0,8.0,80,0.00,,,0.00,Wunderground v.1.15,2013-05-21 14:53:00,
2013-05-21 10:58:00,74.9,67.9,29.87,WNW,300,4.0,8.0,79,0.00,,,0.00,Wunderground v.1.15,2013-05-21 14:58:00,
2013-05-21 11:03:00,75.9,67.4,29.87,NW,316,5.0,11.0,75,0.00,,,0.00,Wunderground v.1.15,2013-05-21 15:03:00,
2013-05-21 11:09:00,76.4,68.3,29.87,NW,316,3.0,11.0,76,0.00,,,0.00,Wunderground v.1.15,2013-05-21 15:09:00,
2013-05-21 11:14:00,76.9,67.2,29.87,NW,317,2.0,6.0,72,0.00,,,0.00,Wunderground v.1.15,2013-05-21 15:14:00,
2013-05-21 11:19:00,77.5,68.6,29.87,NW,309,2.0,8.0,74,0.00,,,0.00,Wunderground v.1.15,2013-05-21 15:19:00,
2013-05-21 11:24:00,78.1,67.1,29.87,NW,311,4.0,7.0,69,0.00,,,0.00,Wunderground v.1.15,2013-05-21 15:24:00,
2013-05-21 11:29:00,78.7,67.7,29.87,NW,321,6.0,11.0,69,0.00,,,0.00,Wunderground v.1.15,2013-05-21 15:29:00,
2013-05-21 11:34:00,78.9,67.4,29.87,NW,325,8.0,10.0,68,0.00,,,0.00,Wunderground v.1.15,2013-05-21 15:34:00,
2013-05-21 11:40:00,79.1,67.6,29.87,NW,315,7.0,7.0,68,0.00,,,0.00,Wunderground v.1.15,2013-05-21 15:40:00,
2013-05-21 11:45:00,79.4,67.0,29.87,NNW,333,4.0,7.0,66,0.00,,,0.00,Wunderground v.1.15,2013-05-21 15:45:00,
2013-05-21 11:50:00,79.8,66.1,29.87,NW,313,4.0,9.0,63,0.00,,,0.00,Wunderground v.1.15,2013-05-21 15:50:00,
2013-05-21 11:55:00,80.2,66.5,29.87,NW,323,9.0,16.0,63,0.00,,,0.00,Wunderground v.1.15,2013-05-21 15:55:00,
2013-05-21 12:00:00,80.5,66.7,29.87,NW,323,9.0,10.0,63,0.00,,,0.00,Wunderground v.1.15,2013-05-21 16:00:00,
2013-05-21 12:05:00,80.8,66.6,29.87,NNW,341,6.0,13.0,62,0.00,,,0.00,Wunderground v.1.15,2013-05-21 16:05:00,
2013-05-21 12:11:00,80.9,66.2,29.87,NW,323,6.0,7.0,61,0.00,,,0.00,Wunderground v.1.15,2013-05-21 16:11:00,
2013-05-21 12:16:00,81.3,67.5,29.86,NW,323,3.0,9.0,63,0.00,,,0.00,Wunderground v.1.15,2013-05-21 16:16:00,
2013-05-21 12:22:00,81.4,65.2,29.86,NW,323,3.0,8.0,58,0.00,,,0.00,Wunderground v.1.15,2013-05-21 16:22:00,
2013-05-21 12:27:00,81.7,67.4,29.86,NW,323,3.0,8.0,62,0.00,,,0.00,Wunderground v.1.15,2013-05-21 16:27:00,
2013-05-21 12:32:00,81.9,66.6,29.86,NW,324,3.0,8.0,60,0.00,,,0.00,Wunderground v.1.15,2013-05-21 16:32:00,
2013-05-21 12:37:00,82.2,65.4,29.86,NW,318,6.0,11.0,57,0.00,,,0.00,Wunderground v.1.15,2013-05-21 16:37:00,
2013-05-21 12:42:00,82.2,64.4,29.86,NW,325,7.0,10.0,55,0.00,,,0.00,Wunderground v.1.15,2013-05-21 16:42:00,
2013-05-21 12:47:00,81.7,64.0,29.86,NW,322,6.0,10.0,55,0.00,,,0.00,Wunderground v.1.15,2013-05-21 16:47:00,
2013-05-21 12:52:00,81.9,64.7,29.86,NW,322,5.0,9.0,56,0.00,,,0.00,Wunderground v.1.15,2013-05-21 16:52:00,
2013-05-21 12:57:00,82.1,65.9,29.85,NW,320,4.0,9.0,58,0.00,,,0.00,Wunderground v.1.15,2013-05-21 16:57:00,
2013-05-21 13:02:00,82.8,65.5,29.85,NW,304,4.0,12.0,56,0.00,,,0.00,Wunderground v.1.15,2013-05-21 17:02:00,
2013-05-21 13:07:00,82.8,63.4,29.85,NNW,328,7.0,12.0,52,0.00,,,0.00,Wunderground v.1.15,2013-05-21 17:07:00,
2013-05-21 13:12:00,82.2,63.4,29.85,NW,325,6.0,11.0,53,0.00,,,0.00,Wunderground v.1.15,2013-05-21 17:12:00,
2013-05-21 13:18:00,82.0,64.8,29.85,NW,325,3.0,11.0,56,0.00,,,0.00,Wunderground v.1.15,2013-05-21 17:18:00,
2013-05-21 13:23:00,81.2,65.0,29.85,NW,325,1.0,3.0,58,0.00,,,0.00,Wunderground v.1.15,2013-05-21 17:23:00,
2013-05-21 13:28:00,80.9,65.7,29.85,NW,325,0.0,3.0,60,0.00,,,0.00,Wunderground v.1.15,2013-05-21 17:28:00,
2013-05-21 13:33:00,80.8,66.1,29.85,NW,325,0.0,0.0,61,0.00,,,0.00,Wunderground v.1.15,2013-05-21 17:33:00,
2013-05-21 13:38:00,80.7,66.9,29.85,NW,325,0.0,0.0,63,0.00,,,0.00,Wunderground v.1.15,2013-05-21 17:38:00,
2013-05-21 13:43:00,80.7,67.8,29.84,NW,325,0.0,0.0,65,0.00,,,0.00,Wunderground v.1.15,2013-05-21 17:43:00,
2013-05-21 13:48:00,80.3,65.6,29.84,NW,325,0.0,0.0,61,0.00,,,0.00,Wunderground v.1.15,2013-05-21 17:48:00,
2013-05-21 13:53:00,80.2,68.7,29.84,NW,325,0.0,0.0,68,0.00,,,0.00,Wunderground v.1.15,2013-05-21 17:53:00,
2013-05-21 13:58:00,80.2,66.9,29.83,NW,325,0.0,0.0,64,0.00,,,0.00,Wunderground v.1.15,2013-05-21 17:58:00,
2013-05-21 14:03:00,80.9,68.9,29.83,WNW,294,0.0,3.0,67,0.00,,,0.00,Wunderground v.1.15,2013-05-21 18:03:00,
2013-05-21 14:08:00,81.9,67.1,29.83,WNW,300,1.0,3.0,61,0.00,,,0.00,Wunderground v.1.15,2013-05-21 18:08:00,
2013-05-21 14:13:00,82.4,69.4,29.83,WNW,298,0.0,1.0,65,0.00,,,0.00,Wunderground v.1.15,2013-05-21 18:13:00,
2013-05-21 14:18:00,83.1,67.8,29.83,WNW,298,0.0,1.0,60,0.00,,,0.00,Wunderground v.1.15,2013-05-21 18:18:00,
2013-05-21 14:24:00,83.1,68.3,29.83,WNW,289,0.0,4.0,61,0.00,,,0.00,Wunderground v.1.15,2013-05-21 18:24:00,
2013-05-21 14:29:00,83.9,67.0,29.82,NW,318,1.0,6.0,57,0.00,,,0.00,Wunderground v.1.15,2013-05-21 18:29:00,
2013-05-21 14:34:00,84.2,66.8,29.82,NW,318,2.0,3.0,56,0.00,,,0.00,Wunderground v.1.15,2013-05-21 18:34:00,
2013-05-21 14:39:00,83.9,67.5,29.82,SE,144,2.0,8.0,58,0.00,,,0.00,Wunderground v.1.15,2013-05-21 18:39:00,
2013-05-21 14:44:00,82.6,66.3,29.81,SE,129,7.0,16.0,58,0.00,,,0.00,Wunderground v.1.15,2013-05-21 18:44:00,
2013-05-21 14:50:00,82.3,66.5,29.81,SE,132,7.0,13.0,59,0.00,,,0.00,Wunderground v.1.15,2013-05-21 18:50:00,
2013-05-21 14:55:00,82.2,66.4,29.81,SE,132,3.0,13.0,59,0.00,,,0.00,Wunderground v.1.15,2013-05-21 18:55:00,
2013-05-21 15:00:00,82.8,68.0,29.80,SE,132,1.0,1.0,61,0.00,,,0.00,Wunderground v.1.15,2013-05-21 19:00:00,
2013-05-21 15:06:00,81.6,67.3,29.80,South,172,2.0,11.0,62,0.00,,,0.00,Wunderground v.1.15,2013-05-21 19:06:00,
2013-05-21 15:11:00,80.2,66.5,29.80,SE,143,4.0,4.0,63,0.00,,,0.00,Wunderground v.1.15,2013-05-21 19:11:00,
2013-05-21 15:16:00,79.4,67.0,29.80,SSE,149,5.0,14.0,66,0.00,,,0.00,Wunderground v.1.15,2013-05-21 19:16:00,
2013-05-21 15:21:00,79.2,66.4,29.80,SSE,149,3.0,4.0,65,0.00,,,0.00,Wunderground v.1.15,2013-05-21 19:21:00,
2013-05-21 15:26:00,79.0,65.8,29.79,SSE,149,0.0,4.0,64,0.00,,,0.00,Wunderground v.1.15,2013-05-21 19:26:00,
2013-05-21 15:31:00,78.9,66.6,29.79,SSE,157,2.0,9.0,66,0.00,,,0.00,Wunderground v.1.15,2013-05-21 19:31:00,
2013-05-21 15:36:00,79.1,65.0,29.79,SE,140,7.0,12.0,62,0.00,,,0.00,Wunderground v.1.15,2013-05-21 19:36:00,
2013-05-21 15:41:00,79.0,64.9,29.78,SE,140,8.0,8.0,62,0.00,,,0.00,Wunderground v.1.15,2013-05-21 19:41:00,
2013-05-21 15:46:00,79.2,65.1,29.78,SE,141,3.0,8.0,62,0.00,,,0.00,Wunderground v.1.15,2013-05-21 19:46:00,
2013-05-21 15:52:00,79.2,65.5,29.78,SE,137,1.0,1.0,63,0.00,,,0.00,Wunderground v.1.15,2013-05-21 19:52:00,
2013-05-21 15:57:00,79.3,67.0,29.78,SE,137,1.0,1.0,66,0.00,,,0.00,Wunderground v.1.15,2013-05-21 19:57:00,
2013-05-21 16:02:00,79.3,65.1,29.78,SE,138,0.0,0.0,62,0.00,,,0.00,Wunderground v.1.15,2013-05-21 20:02:00,
2013-05-21 16:07:00,79.1,66.8,29.78,SE,137,1.0,8.0,66,0.00,,,0.00,Wunderground v.1.15,2013-05-21 20:07:00,
2013-05-21 16:12:00,79.0,64.9,29.77,SE,137,1.0,10.0,62,0.00,,,0.00,Wunderground v.1.15,2013-05-21 20:12:00,
2013-05-21 16:17:00,78.8,66.5,29.77,SE,135,5.0,14.0,66,0.00,,,0.00,Wunderground v.1.15,2013-05-21 20:17:00,
2013-05-21 16:22:00,78.8,66.5,29.77,SE,134,10.0,12.0,66,0.00,,,0.00,Wunderground v.1.15,2013-05-21 20:22:00,
2013-05-21 16:27:00,79.5,66.7,29.77,SSE,153,11.0,14.0,65,0.00,,,0.00,Wunderground v.1.15,2013-05-21 20:27:00,
2013-05-21 16:32:00,79.5,67.6,29.77,SSW,192,9.0,9.0,67,0.00,,,0.00,Wunderground v.1.15,2013-05-21 20:32:00,
2013-05-21 16:37:00,79.4,68.3,29.77,SE,130,2.0,9.0,69,0.00,,,0.00,Wunderground v.1.15,2013-05-21 20:37:00,
2013-05-21 16:42:00,78.7,68.1,29.77,NW,321,2.0,12.0,70,0.00,,,0.00,Wunderground v.1.15,2013-05-21 20:42:00,
2013-05-21 16:48:00,77.8,70.0,29.77,NE,55,2.0,12.0,77,1.42,,,0.02,Wunderground v.1.15,2013-05-21 20:48:00,
2013-05-21 16:53:00,76.3,70.8,29.77,NNE,25,1.0,1.0,83,1.05,,,0.10,Wunderground v.1.15,2013-05-21 20:53:00,
2013-05-21 16:58:00,74.7,70.2,29.77,NNE,25,0.0,1.0,86,0.14,,,0.11,Wunderground v.1.15,2013-05-21 20:58:00,
2013-05-21 17:03:00,73.4,69.6,29.77,SSE,150,1.0,3.0,88,0.07,,,0.11,Wunderground v.1.15,2013-05-21 21:03:00,
2013-05-21 17:08:00,72.9,69.5,29.77,SSE,150,1.0,3.0,89,0.04,,,0.11,Wunderground v.1.15,2013-05-21 21:08:00,
2013-05-21 17:13:00,72.6,69.2,29.77,SSE,150,0.0,1.0,89,0.00,,,0.11,Wunderground v.1.15,2013-05-21 21:13:00,
2013-05-21 17:18:00,72.4,69.0,29.77,SSE,165,0.0,1.0,89,0.38,,,0.13,Wunderground v.1.15,2013-05-21 21:18:00,
2013-05-21 17:24:00,72.3,69.5,29.77,SSE,161,2.0,10.0,91,0.26,,,0.16,Wunderground v.1.15,2013-05-21 21:24:00,
2013-05-21 17:29:00,71.7,68.6,29.77,SE,135,5.0,12.0,90,0.42,,,0.19,Wunderground v.1.15,2013-05-21 21:29:00,
2013-05-21 17:34:00,71.3,68.5,29.77,SE,135,4.0,6.0,91,0.21,,,0.21,Wunderground v.1.15,2013-05-21 21:34:00,
2013-05-21 17:40:00,71.3,68.9,29.77,SE,133,0.0,0.0,92,0.08,,,0.22,Wunderground v.1.15,2013-05-21 21:40:00,
2013-05-21 17:45:00,70.4,66.7,29.76,SSE,153,2.0,8.0,88,0.08,,,0.22,Wunderground v.1.15,2013-05-21 21:45:00,
2013-05-21 17:50:00,69.0,64.6,29.76,SSE,150,6.0,10.0,86,0.06,,,0.22,Wunderground v.1.15,2013-05-21 21:50:00,
2013-05-21 17:55:00,68.3,64.6,29.76,SE,134,10.0,15.0,88,0.04,,,0.22,Wunderground v.1.15,2013-05-21 21:55:00,
2013-05-21 18:00:00,68.0,64.0,29.76,SSE,147,7.0,7.0,87,0.00,,,0.22,Wunderground v.1.15,2013-05-21 22:00:00,
2013-05-21 18:06:00,67.6,62.9,29.76,SSE,167,6.0,14.0,85,0.00,,,0.22,Wunderground v.1.15,2013-05-21 22:06:00,
2013-05-21 18:11:00,67.3,63.6,29.76,SE,136,12.0,24.0,88,0.00,,,0.22,Wunderground v.1.15,2013-05-21 22:11:00,
2013-05-21 18:16:00,66.8,62.5,29.78,SE,134,20.0,27.0,86,1.60,,,0.25,Wunderground v.1.15,2013-05-21 22:16:00,
2013-05-21 18:21:00,65.8,61.8,29.78,SE,144,23.0,23.0,87,1.75,,,0.43,Wunderground v.1.15,2013-05-21 22:21:00,
2013-05-21 18:27:00,64.1,61.1,29.78,South,170,23.0,27.0,90,0.68,,,0.53,Wunderground v.1.15,2013-05-21 22:27:00,
2013-05-21 18:32:00,63.8,61.1,29.78,SE,146,23.0,23.0,91,0.66,,,0.59,Wunderground v.1.15,2013-05-21 22:32:00,
2013-05-21 18:37:00,63.1,60.7,29.78,SE,137,18.0,24.0,92,0.17,,,0.60,Wunderground v.1.15,2013-05-21 22:37:00,
2013-05-21 18:42:00,62.8,60.7,29.78,SE,140,14.0,14.0,93,0.08,,,0.61,Wunderground v.1.15,2013-05-21 22:42:00,
2013-05-21 18:47:00,62.4,60.3,29.78,SE,140,12.0,21.0,93,0.08,,,0.61,Wunderground v.1.15,2013-05-21 22:47:00,
2013-05-21 18:52:00,62.2,60.5,29.78,SE,137,12.0,20.0,94,0.07,,,0.62,Wunderground v.1.15,2013-05-21 22:52:00,
2013-05-21 18:57:00,63.2,61.1,29.78,SE,134,15.0,26.0,93,0.07,,,0.62,Wunderground v.1.15,2013-05-21 22:57:00,
2013-05-21 19:02:00,63.0,60.9,29.78,SSE,148,16.0,16.0,93,0.21,,,0.65,Wunderground v.1.15,2013-05-21 23:02:00,
2013-05-21 19:07:00,62.8,61.0,29.78,SSE,147,8.0,16.0,94,0.13,,,0.66,Wunderground v.1.15,2013-05-21 23:07:00,
2013-05-21 19:13:00,62.8,61.0,29.79,SSE,147,2.0,5.0,94,0.08,,,0.67,Wunderground v.1.15,2013-05-21 23:13:00,
2013-05-21 19:18:00,62.8,61.0,29.79,SSE,147,0.0,5.0,94,0.08,,,0.67,Wunderground v.1.15,2013-05-21 23:18:00,
2013-05-21 19:23:00,62.9,61.1,29.79,SSE,147,0.0,0.0,94,0.05,,,0.67,Wunderground v.1.15,2013-05-21 23:23:00,
2013-05-21 19:28:00,62.9,61.1,29.80,SSE,157,1.0,11.0,94,0.00,,,0.67,Wunderground v.1.15,2013-05-21 23:28:00,
2013-05-21 19:33:00,63.0,61.2,29.80,SSE,160,3.0,8.0,94,0.00,,,0.67,Wunderground v.1.15,2013-05-21 23:33:00,
2013-05-21 19:38:00,63.1,61.3,29.80,SSE,153,5.0,11.0,94,0.00,,,0.67,Wunderground v.1.15,2013-05-21 23:38:00,
2013-05-21 19:44:00,63.1,61.3,29.80,SSE,156,7.0,11.0,94,0.00,,,0.67,Wunderground v.1.15,2013-05-21 23:44:00,
2013-05-21 19:49:00,62.9,61.1,29.80,SE,145,10.0,16.0,94,0.00,,,0.67,Wunderground v.1.15,2013-05-21 23:49:00,
2013-05-21 19:54:00,63.1,61.0,29.80,SE,132,15.0,23.0,93,0.00,,,0.67,Wunderground v.1.15,2013-05-21 23:54:00,
2013-05-21 19:59:00,63.5,61.1,29.82,SSE,162,17.0,23.0,92,0.00,,,0.67,Wunderground v.1.15,2013-05-21 23:59:00,
2013-05-21 20:04:00,63.6,61.2,29.82,SE,125,13.0,17.0,92,0.00,,,0.67,Wunderground v.1.15,2013-05-22 00:04:00,
2013-05-21 20:10:00,63.4,61.0,29.82,SSW,202,3.0,3.0,92,0.00,,,0.68,Wunderground v.1.15,2013-05-22 00:10:00,
2013-05-21 20:16:00,63.0,60.9,29.83,SSW,202,0.0,3.0,93,0.00,,,0.68,Wunderground v.1.15,2013-05-22 00:16:00,
2013-05-21 20:21:00,62.7,60.6,29.83,SSW,202,0.0,4.0,93,0.00,,,0.68,Wunderground v.1.15,2013-05-22 00:21:00,
2013-05-21 20:27:00,62.5,60.4,29.86,SSW,204,1.0,4.0,93,0.00,,,0.68,Wunderground v.1.15,2013-05-22 00:27:00,
2013-05-21 20:32:00,62.5,60.4,29.86,SSW,213,1.0,1.0,93,0.00,,,0.68,Wunderground v.1.15,2013-05-22 00:32:00,
2013-05-21 20:37:00,62.5,60.4,29.86,SSW,213,0.0,1.0,93,0.00,,,0.68,Wunderground v.1.15,2013-05-22 00:37:00,
2013-05-21 20:42:00,62.5,60.1,29.85,SSW,213,0.0,0.0,92,0.00,,,0.68,Wunderground v.1.15,2013-05-22 00:42:00,
2013-05-21 20:47:00,62.6,60.5,29.85,SSW,213,0.0,0.0,93,0.00,,,0.68,Wunderground v.1.15,2013-05-22 00:47:00,
2013-05-21 20:52:00,62.7,60.6,29.85,SSW,213,0.0,0.0,93,0.00,,,0.68,Wunderground v.1.15,2013-05-22 00:52:00,
2013-05-21 20:57:00,62.6,60.8,29.84,SW,231,2.0,8.0,94,0.00,,,0.68,Wunderground v.1.15,2013-05-22 00:57:00,
2013-05-21 21:02:00,62.5,60.7,29.84,NW,324,6.0,10.0,94,0.00,,,0.69,Wunderground v.1.15,2013-05-22 01:02:00,
2013-05-21 21:08:00,62.4,60.7,29.84,NW,317,5.0,10.0,94,0.11,,,0.71,Wunderground v.1.15,2013-05-22 01:08:00,
2013-05-21 21:13:00,62.3,60.6,29.82,NW,317,1.0,4.0,94,0.12,,,0.71,Wunderground v.1.15,2013-05-22 01:13:00,
2013-05-21 21:18:00,62.2,60.5,29.82,NNW,331,1.0,8.0,94,0.11,,,0.72,Wunderground v.1.15,2013-05-22 01:18:00,
2013-05-21 21:23:00,62.3,60.6,29.82,NW,326,2.0,4.0,94,0.06,,,0.72,Wunderground v.1.15,2013-05-22 01:23:00,
2013-05-21 21:29:00,62.2,60.5,29.81,NW,326,1.0,4.0,94,0.06,,,0.73,Wunderground v.1.15,2013-05-22 01:29:00,
2013-05-21 21:34:00,62.0,60.3,29.81,NW,326,0.0,1.0,94,0.10,,,0.74,Wunderground v.1.15,2013-05-22 01:34:00,
2013-05-21 21:39:00,62.0,60.3,29.81,West,271,0.0,4.0,94,0.06,,,0.74,Wunderground v.1.15,2013-05-22 01:39:00,
2013-05-21 21:44:00,61.8,60.1,29.79,West,280,0.0,4.0,94,0.04,,,0.74,Wunderground v.1.15,2013-05-22 01:44:00,
2013-05-21 21:49:00,61.7,60.0,29.79,NW,326,2.0,10.0,94,0.00,,,0.74,Wunderground v.1.15,2013-05-22 01:49:00,
2013-05-21 21:54:00,61.7,59.7,29.79,NW,324,2.0,2.0,93,0.00,,,0.74,Wunderground v.1.15,2013-05-22 01:54:00,
2013-05-21 21:59:00,61.7,59.7,29.78,NW,324,1.0,2.0,93,0.00,,,0.74,Wunderground v.1.15,2013-05-22 01:59:00,
2013-05-21 22:04:00,61.7,60.0,29.78,NW,324,0.0,0.0,94,0.00,,,0.74,Wunderground v.1.15,2013-05-22 02:04:00,
2013-05-21 22:10:00,61.4,59.7,29.78,SE,124,2.0,14.0,94,0.00,,,0.74,Wunderground v.1.15,2013-05-22 02:10:00,
2013-05-21 22:15:00,61.1,59.4,29.79,SE,138,4.0,14.0,94,0.00,,,0.74,Wunderground v.1.15,2013-05-22 02:15:00,
2013-05-21 22:20:00,61.0,59.3,29.79,SE,138,4.0,4.0,94,0.00,,,0.74,Wunderground v.1.15,2013-05-22 02:20:00,
2013-05-21 22:26:00,61.0,59.3,29.79,SE,138,1.0,4.0,94,0.00,,,0.74,Wunderground v.1.15,2013-05-22 02:26:00,
2013-05-21 22:32:00,60.9,59.5,29.80,SE,138,0.0,1.0,95,0.00,,,0.74,Wunderground v.1.15,2013-05-22 02:32:00,
2013-05-21 22:38:00,60.8,59.4,29.80,SE,138,0.0,1.0,95,0.00,,,0.74,Wunderground v.1.15,2013-05-22 02:38:00,
2013-05-21 22:43:00,60.8,59.1,29.82,SE,138,0.0,5.0,94,0.00,,,0.74,Wunderground v.1.15,2013-05-22 02:43:00,
2013-05-21 22:48:00,60.7,59.0,29.82,SE,138,1.0,5.0,94,0.00,,,0.74,Wunderground v.1.15,2013-05-22 02:48:00,
2013-05-21 22:54:00,60.7,59.3,29.82,SE,138,0.0,1.0,95,0.00,,,0.74,Wunderground v.1.15,2013-05-22 02:54:00,
2013-05-21 22:59:00,60.6,59.2,29.83,SE,138,0.0,4.0,95,0.00,,,0.74,Wunderground v.1.15,2013-05-22 02:59:00,
2013-05-21 23:04:00,60.7,59.3,29.83,SE,139,2.0,8.0,95,0.00,,,0.74,Wunderground v.1.15,2013-05-22 03:04:00,
2013-05-21 23:09:00,60.7,59.3,29.83,SE,139,2.0,8.0,95,0.00,,,0.74,Wunderground v.1.15,2013-05-22 03:09:00,
2013-05-21 23:14:00,60.7,59.3,29.84,SE,139,0.0,2.0,95,0.00,,,0.74,Wunderground v.1.15,2013-05-22 03:14:00,
2013-05-21 23:19:00,60.7,59.3,29.84,SE,139,0.0,2.0,95,0.00,,,0.74,Wunderground v.1.15,2013-05-22 03:19:00,
2013-05-21 23:24:00,60.7,59.3,29.84,SE,139,0.0,0.0,95,0.00,,,0.74,Wunderground v.1.15,2013-05-22 03:24:00,
2013-05-21 23:30:00,60.8,59.4,29.84,SE,139,0.0,0.0,95,0.00,,,0.74,Wunderground v.1.15,2013-05-22 03:30:00,
2013-05-21 23:35:00,60.8,59.4,29.84,SE,139,0.0,3.0,95,0.00,,,0.74,Wunderground v.1.15,2013-05-22 03:35:00,
2013-05-21 23:40:00,60.8,59.4,29.84,SE,139,1.0,1.0,95,0.00,,,0.74,Wunderground v.1.15,2013-05-22 03:40:00,
2013-05-21 23:45:00,60.7,59.3,29.84,SE,139,0.0,1.0,95,0.00,,,0.74,Wunderground v.1.15,2013-05-22 03:45:00,
2013-05-21 23:51:00,60.6,59.2,29.84,SE,139,0.0,0.0,95,0.00,,,0.74,Wunderground v.1.15,2013-05-22 03:51:00,
2013-05-21 23:56:00,60.5,59.1,29.84,SE,139,0.0,0.0,95,0.00,,,0.74,Wunderground v.1.15,2013-05-22 03:56:00,